Time;durP1;ratioP1;P1;durP2;ratioP2;P2;SDS_P1;SDS_P2;PMS_P1;PMS_P2;Temp;Humidity;BMP_temperature;BMP_pressure;BME280_temperature;BME280_humidity;BME280_pressure;Samples;Min_cycle;Max_cycle;Signal;HPM_P1;HPM_P2
2021/10/26 00:00:27;;;;;;;26.00;13.73;;;;;;;10.25;98.13;101596.66;2107144;28;20085;-71
2021/10/26 00:01:28;;;;;;;28.07;14.67;;;;;;;10.24;97.87;101591.50;2107165;28;20115;-68
2021/10/26 00:02:28;;;;;;;26.30;13.75;;;;;;;10.24;97.79;101592.34;2107292;28;20462;-71
2021/10/26 00:03:28;;;;;;;25.80;14.77;;;;;;;10.23;97.88;101590.63;2107225;28;20020;-70
2021/10/26 00:04:29;;;;;;;28.53;14.87;;;;;;;10.23;98.15;101593.22;2106591;28;20531;-71
2021/10/26 00:05:29;;;;;;;25.27;13.47;;;;;;;10.25;98.03;101593.19;2106508;28;20050;-70
2021/10/26 00:06:29;;;;;;;26.13;14.50;;;;;;;10.25;97.58;101603.63;2107242;28;20023;-70
2021/10/26 00:07:29;;;;;;;25.77;15.27;;;;;;;10.25;97.62;101601.00;2106939;28;20024;-69
2021/10/26 00:08:30;;;;;;;28.97;15.23;;;;;;;10.24;98.31;101602.78;2106345;28;20063;-70
2021/10/26 00:09:30;;;;;;;24.17;13.67;;;;;;;10.24;97.93;101604.53;2106520;28;20055;-70
2021/10/26 00:10:31;;;;;;;31.67;14.53;;;;;;;10.24;98.30;101602.78;2107176;28;20028;-68
2021/10/26 00:11:32;;;;;;;33.90;16.80;;;;;;;10.25;98.01;101607.09;2106896;28;20031;-69
2021/10/26 00:12:32;;;;;;;25.88;14.32;;;;;;;10.25;97.93;101601.88;2106987;28;20546;-70
2021/10/26 00:13:32;;;;;;;26.70;15.57;;;;;;;10.26;98.06;101608.81;2107086;28;20051;-71
2021/10/26 00:14:33;;;;;;;33.63;16.60;;;;;;;10.28;97.84;101609.63;2107176;28;20032;-70
2021/10/26 00:15:33;;;;;;;29.45;14.57;;;;;;;10.29;97.86;101607.84;2107263;28;20039;-70
2021/10/26 00:16:33;;;;;;;29.93;16.50;;;;;;;10.30;97.81;101606.97;2107396;28;20023;-71
2021/10/26 00:17:34;;;;;;;24.33;14.70;;;;;;;10.30;97.45;101609.59;2107229;28;20020;-70
2021/10/26 00:18:34;;;;;;;29.03;15.57;;;;;;;10.28;97.65;101607.03;2107145;28;20488;-68
2021/10/26 00:19:35;;;;;;;21.90;12.43;;;;;;;10.27;97.92;101602.69;2107081;28;20032;-70
2021/10/26 00:20:35;;;;;;;27.30;14.60;;;;;;;10.28;97.87;101606.16;2106933;28;20019;-72
2021/10/26 00:21:36;;;;;;;27.83;12.97;;;;;;;10.25;98.08;101609.72;2106390;28;20310;-72
2021/10/26 00:22:36;;;;;;;;;;;;;;;10.23;97.73;101608.88;2107001;28;20489;-69
2021/10/26 00:23:37;;;;;;;33.40;15.90;;;;;;;10.21;97.64;101602.88;2107255;28;19908;-71
2021/10/26 00:24:37;;;;;;;32.60;15.50;;;;;;;10.19;98.06;101609.88;2107053;28;20024;-69
2021/10/26 00:25:39;;;;;;;32.00;14.57;;;;;;;10.19;98.00;101609.88;2106819;28;20091;-70
2021/10/26 00:26:39;;;;;;;;;;;;;;;10.18;97.92;101610.78;2106826;28;20015;-70
2021/10/26 00:27:39;;;;;;;25.23;12.45;;;;;;;10.15;98.08;101616.06;2106499;28;19915;-69
2021/10/26 00:28:40;;;;;;;27.27;13.53;;;;;;;10.15;98.14;101613.47;2106973;28;20028;-71
2021/10/26 00:29:40;;;;;;;26.63;13.23;;;;;;;10.13;98.25;101621.34;2106979;28;20028;-68
2021/10/26 00:30:41;;;;;;;25.60;14.67;;;;;;;10.16;98.39;101617.78;2106722;28;20031;-69
2021/10/26 00:31:41;;;;;;;33.00;13.27;;;;;;;10.15;98.28;101610.84;2106820;28;20503;-71
2021/10/26 00:32:41;;;;;;;28.48;13.15;;;;;;;10.16;98.29;101620.38;2107003;28;20032;-70
2021/10/26 00:33:42;;;;;;;27.33;14.13;;;;;;;10.16;98.16;101625.59;2106271;28;20410;-70
2021/10/26 00:34:43;;;;;;;26.17;12.67;;;;;;;10.16;98.73;101620.38;2097994;28;20074;-70
2021/10/26 00:35:43;;;;;;;30.75;13.48;;;;;;;10.16;98.13;101623.88;2106408;28;20049;-70
2021/10/26 00:36:44;;;;;;;28.13;14.83;;;;;;;10.18;98.37;101618.59;2106794;28;20019;-68
2021/10/26 00:37:47;;;;;;;28.02;14.13;;;;;;;10.22;98.42;101628.06;2106830;28;20059;-70
2021/10/26 00:38:47;;;;;;;24.85;14.00;;;;;;;10.24;98.16;101609.75;2106904;28;20015;-70
2021/10/26 00:39:49;;;;;;;24.33;11.80;;;;;;;10.24;98.01;101615.84;2106266;28;20020;-70
2021/10/26 00:40:50;;;;;;;30.70;15.52;;;;;;;10.26;98.02;101621.84;2106357;28;20308;-71
2021/10/26 00:41:50;;;;;;;25.80;14.50;;;;;;;10.26;98.10;101623.59;2107064;28;20016;-71
2021/10/26 00:42:51;;;;;;;24.13;13.40;;;;;;;10.25;97.87;101620.16;2106923;28;20032;-71
2021/10/26 00:43:52;;;;;;;29.17;14.27;;;;;;;10.28;98.39;101624.41;2106847;28;20054;-71
2021/10/26 00:44:52;;;;;;;24.13;12.90;;;;;;;10.26;98.08;101614.03;2106898;28;20249;-72
2021/10/26 00:45:53;;;;;;;27.03;13.50;;;;;;;10.29;98.16;101621.75;2106249;28;20432;-71
2021/10/26 00:46:54;;;;;;;31.63;16.48;;;;;;;10.29;98.33;101615.69;2106074;28;20062;-70
2021/10/26 00:47:54;;;;;;;26.77;15.13;;;;;;;10.29;98.05;101616.53;2106721;28;20482;-72
2021/10/26 00:48:57;;;;;;;33.07;19.50;;;;;;;10.29;98.51;101619.16;2106596;28;20016;-70
2021/10/26 00:49:57;;;;;;;29.33;14.93;;;;;;;10.28;97.72;101619.19;2106891;28;20024;-71
2021/10/26 00:50:58;;;;;;;23.83;13.05;;;;;;;10.27;98.10;101626.16;2106749;28;20101;-72
2021/10/26 00:51:58;;;;;;;25.07;13.83;;;;;;;10.25;97.84;101619.28;2106884;28;20056;-69
2021/10/26 00:52:58;;;;;;;28.10;13.93;;;;;;;10.24;97.86;101625.41;2106585;28;20416;-71
2021/10/26 00:53:59;;;;;;;27.10;14.10;;;;;;;10.22;98.10;101628.06;2106819;28;20027;-70
2021/10/26 00:55:00;;;;;;;25.27;13.13;;;;;;;10.21;97.88;101631.56;2106725;28;20027;-71
2021/10/26 00:56:00;;;;;;;25.30;13.40;;;;;;;10.21;97.92;101626.34;2107111;28;20381;-70
2021/10/26 00:57:01;;;;;;;23.17;14.10;;;;;;;10.20;98.12;101632.47;2106876;28;20066;-71
2021/10/26 00:58:02;;;;;;;24.23;13.43;;;;;;;10.21;98.18;101628.97;2106864;28;20027;-71
2021/10/26 00:59:02;;;;;;;25.25;14.05;;;;;;;10.20;98.38;101637.69;2106921;28;20102;-70
2021/10/26 01:00:05;;;;;;;26.23;13.98;;;;;;;10.20;98.20;101626.38;2107733;28;20032;-72
2021/10/26 01:01:05;;;;;;;21.60;11.77;;;;;;;10.19;98.13;101630.75;2107904;28;20032;-70
2021/10/26 01:02:06;;;;;;;24.90;14.37;;;;;;;10.19;98.39;101638.56;2107728;28;20384;-71
2021/10/26 01:03:06;;;;;;;32.13;16.13;;;;;;;10.17;98.66;101633.38;2107538;28;20072;-73
2021/10/26 01:04:06;;;;;;;24.80;14.13;;;;;;;10.15;98.17;101631.72;2107977;28;20030;-69
2021/10/26 01:05:07;;;;;;;28.60;14.20;;;;;;;10.14;98.68;101632.63;2108260;28;20108;-70
2021/10/26 01:06:08;;;;;;;28.20;15.52;;;;;;;10.15;98.63;101629.13;2108365;28;20439;-71
2021/10/26 01:07:08;;;;;;;27.98;15.65;;;;;;;10.14;98.58;101638.72;2107406;28;20055;-72
2021/10/26 01:08:09;;;;;;;33.05;14.95;;;;;;;10.15;98.64;101634.34;2109039;28;20056;-71
2021/10/26 01:09:09;;;;;;;28.70;14.85;;;;;;;10.12;98.51;101629.19;2108055;28;20027;-72
2021/10/26 01:10:10;;;;;;;27.67;13.98;;;;;;;10.13;99.22;101630.94;2107521;28;20568;-70
2021/10/26 01:11:10;;;;;;;25.77;13.13;;;;;;;10.14;98.95;101637.84;2106973;28;20024;-71
2021/10/26 01:12:11;;;;;;;24.73;13.93;;;;;;;10.13;98.63;101630.94;2106824;28;20028;-69
2021/10/26 01:13:12;;;;;;;26.10;12.88;;;;;;;10.11;98.70;101638.78;2106651;28;20290;-69
2021/10/26 01:14:13;;;;;;;29.67;16.83;;;;;;;10.09;98.77;101639.75;2106679;28;20392;-68
2021/10/26 01:15:14;;;;;;;;;;;;;;;10.05;98.69;101645.03;2107236;28;20755;-70
2021/10/26 01:16:14;;;;;;;27.45;13.25;;;;;;;10.07;99.36;101636.31;2106105;28;19908;-72
2021/10/26 01:17:15;;;;;;;31.57;15.27;;;;;;;10.05;98.99;101639.81;2106338;28;20040;-70
2021/10/26 01:18:16;;;;;;;29.10;13.82;;;;;;;10.02;98.96;101639.91;2106727;28;20031;-69
2021/10/26 01:19:16;;;;;;;30.07;14.40;;;;;;;9.98;98.96;101635.66;2106685;28;20134;-70
2021/10/26 01:20:17;;;;;;;30.53;14.87;;;;;;;9.94;99.11;101641.84;2106701;28;20115;-69
2021/10/26 01:21:17;;;;;;;32.75;13.52;;;;;;;9.92;99.22;101639.28;2106855;28;20028;-68
2021/10/26 01:22:19;;;;;;;32.30;15.03;;;;;;;9.89;99.17;101646.34;2106585;28;20067;-71
2021/10/26 01:23:21;;;;;;;31.58;13.95;;;;;;;9.85;99.41;101647.31;2106704;28;20024;-71
2021/10/26 01:24:21;;;;;;;31.42;15.65;;;;;;;9.84;99.89;101645.59;2106453;28;20024;-70
2021/10/26 01:25:22;;;;;;;27.00;14.77;;;;;;;9.81;99.81;101645.69;2106554;28;20481;-70
2021/10/26 01:26:23;;;;;;;28.25;13.95;;;;;;;9.78;99.56;101647.47;2106831;28;20469;-69
2021/10/26 01:27:23;;;;;;;29.95;13.50;;;;;;;9.76;99.64;101640.59;2106753;28;20024;-70
2021/10/26 01:28:24;;;;;;;24.13;12.80;;;;;;;9.75;100.00;101650.16;2106782;28;20053;-71
2021/10/26 01:29:24;;;;;;;34.00;14.57;;;;;;;9.71;99.93;101645.91;2106684;28;20031;-71
2021/10/26 01:30:28;;;;;;;28.37;15.40;;;;;;;9.69;100.00;101639.91;2106179;28;20024;-70
2021/10/26 01:31:28;;;;;;;32.38;14.43;;;;;;;9.68;100.00;101640.78;2106114;28;20024;-71
2021/10/26 01:32:28;;;;;;;31.20;15.10;;;;;;;9.68;100.00;101646.00;2106600;28;20473;-71
2021/10/26 01:33:29;;;;;;;31.87;13.17;;;;;;;9.67;100.00;101654.72;2106816;28;20028;-72
2021/10/26 01:34:30;;;;;;;25.60;13.55;;;;;;;9.63;100.00;101650.47;2106580;28;20562;-71
2021/10/26 01:35:31;;;;;;;33.05;14.20;;;;;;;9.60;100.00;101642.72;2106649;28;20055;-70
2021/10/26 01:36:32;;;;;;;34.67;15.45;;;;;;;9.55;100.00;101636.78;2106659;28;20016;-70
2021/10/26 01:37:35;;;;;;;31.00;14.43;;;;;;;9.53;100.00;101642.03;2106565;28;20374;-69
2021/10/26 01:38:35;;;;;;;26.70;15.25;;;;;;;9.52;100.00;101646.38;2106677;28;20073;-72
2021/10/26 01:39:37;;;;;;;35.13;14.60;;;;;;;9.47;100.00;101635.22;2106679;28;20024;-70
2021/10/26 01:40:38;;;;;;;27.02;13.88;;;;;;;9.46;100.00;101640.47;2106029;28;20016;-71
2021/10/26 01:41:38;;;;;;;30.25;12.60;;;;;;;9.43;100.00;101638.81;2097591;28;20074;-70
2021/10/26 01:42:38;;;;;;;23.57;12.47;;;;;;;9.41;100.00;101643.19;2106174;28;20464;-69
2021/10/26 01:43:39;;;;;;;28.07;13.27;;;;;;;9.38;100.00;101643.28;2106728;28;20385;-69
2021/10/26 01:44:39;;;;;;;31.20;15.93;;;;;;;9.36;100.00;101650.28;2106572;28;20020;-69
2021/10/26 01:45:40;;;;;;;26.65;14.13;;;;;;;9.35;100.00;101651.16;2106383;28;20393;-72
2021/10/26 01:46:41;;;;;;;32.97;15.60;;;;;;;9.35;100.00;101653.78;2105681;28;20032;-69
2021/10/26 01:47:41;;;;;;;24.33;13.55;;;;;;;9.34;100.00;101652.06;2097456;28;20048;-70
2021/10/26 01:48:42;;;;;;;30.97;13.33;;;;;;;9.31;100.00;101652.13;2105955;28;20493;-70
2021/10/26 01:49:43;;;;;;;33.00;15.53;;;;;;;9.31;100.00;101646.94;2106567;28;20027;-70
2021/10/26 01:50:43;;;;;;;29.75;14.52;;;;;;;9.31;100.00;101654.75;2106606;28;20028;-70
2021/10/26 01:51:45;;;;;;;26.30;14.23;;;;;;;9.28;100.00;101648.69;2106660;28;20473;-71
2021/10/26 01:52:45;;;;;;;26.33;13.43;;;;;;;9.28;100.00;101650.47;2106402;28;20020;-72
2021/10/26 01:53:46;;;;;;;34.25;16.50;;;;;;;9.24;100.00;101652.28;2106469;28;20027;-70
2021/10/26 01:54:47;;;;;;;36.73;14.83;;;;;;;9.21;100.00;101636.72;2106788;28;20020;-72
2021/10/26 01:55:47;;;;;;;24.00;13.25;;;;;;;9.17;100.00;101645.50;2106349;28;20020;-71
2021/10/26 01:56:47;;;;;;;32.43;14.73;;;;;;;9.14;100.00;101645.59;2106508;28;20040;-72
2021/10/26 01:57:48;;;;;;;29.80;15.17;;;;;;;9.11;100.00;101640.44;2106205;28;20028;-71
2021/10/26 01:58:48;;;;;;;26.03;14.97;;;;;;;9.09;100.00;101647.41;2105683;28;20509;-71
2021/10/26 01:59:48;;;;;;;29.47;15.20;;;;;;;9.11;100.00;101648.25;2105980;28;20024;-71
2021/10/26 02:00:49;;;;;;;27.70;13.63;;;;;;;9.13;100.00;101649.06;2106620;28;20016;-71
2021/10/26 02:01:49;;;;;;;30.70;14.88;;;;;;;9.17;100.00;101642.88;2105925;28;20389;-70
2021/10/26 02:02:50;;;;;;;30.03;15.77;;;;;;;9.21;100.00;101641.91;2105815;28;20067;-71
2021/10/26 02:03:50;;;;;;;32.17;14.30;;;;;;;9.21;100.00;101647.13;2106481;28;20020;-70
2021/10/26 02:04:54;;;;;;;33.43;14.93;;;;;;;9.20;100.00;101653.25;2106504;28;20419;-70
2021/10/26 02:05:54;;;;;;;29.48;13.90;;;;;;;9.16;100.00;101649.00;2106386;28;20020;-70
2021/10/26 02:06:55;;;;;;;31.08;14.38;;;;;;;9.16;100.00;101648.16;2106527;28;20052;-71
2021/10/26 02:07:55;;;;;;;28.70;14.63;;;;;;;9.18;100.00;101657.66;2106352;28;20016;-69
2021/10/26 02:08:55;;;;;;;26.70;15.50;;;;;;;9.20;100.00;101650.63;2105751;28;20024;-70
2021/10/26 02:09:56;;;;;;;25.38;14.20;;;;;;;9.22;100.00;101654.06;2097340;28;20058;-69
2021/10/26 02:10:56;;;;;;;27.20;15.87;;;;;;;9.24;100.00;101652.28;2105912;28;20039;-71
2021/10/26 02:11:57;;;;;;;29.17;13.00;;;;;;;9.23;100.00;101655.78;2106437;28;20036;-70
2021/10/26 02:12:57;;;;;;;25.75;12.40;;;;;;;9.24;100.00;101657.47;2105704;28;20056;-70
2021/10/26 02:13:57;;;;;;;27.20;12.83;;;;;;;9.25;100.00;101654.00;2105985;28;20024;-69
2021/10/26 02:14:58;;;;;;;28.77;13.53;;;;;;;9.27;100.00;101647.00;2106464;28;20025;-70
2021/10/26 02:15:58;;;;;;;24.80;11.67;;;;;;;9.30;100.00;101658.25;2106502;28;20032;-70
2021/10/26 02:16:59;;;;;;;26.63;13.57;;;;;;;9.33;100.00;101655.53;2107178;28;20024;-70
2021/10/26 02:18:00;;;;;;;29.80;14.27;;;;;;;9.35;100.00;101653.78;2108046;28;20023;-71
2021/10/26 02:19:00;;;;;;;26.03;13.07;;;;;;;9.39;100.00;101650.19;2108047;28;20481;-72
2021/10/26 02:20:01;;;;;;;27.87;13.43;;;;;;;9.44;100.00;101656.16;2108071;28;20542;-70
2021/10/26 02:21:02;;;;;;;29.30;15.25;;;;;;;9.48;100.00;101655.16;2107802;28;20032;-70
2021/10/26 02:22:03;;;;;;;32.08;14.75;;;;;;;9.51;100.00;101649.03;2107171;28;20020;-71
2021/10/26 02:23:03;;;;;;;32.20;15.40;;;;;;;9.53;100.00;101649.84;2107300;28;20013;-71
2021/10/26 02:24:04;;;;;;;22.93;12.30;;;;;;;9.56;100.00;101646.31;2107171;28;20016;-70
2021/10/26 02:25:04;;;;;;;27.88;14.63;;;;;;;9.57;100.00;101642.81;2106987;28;20070;-69
2021/10/26 02:26:05;;;;;;;33.85;16.08;;;;;;;9.59;100.00;101646.25;2107810;28;20031;-70
2021/10/26 02:27:05;;;;;;;30.73;13.50;;;;;;;9.61;100.00;101645.31;2107924;28;20024;-69
2021/10/26 02:28:06;;;;;;;29.40;13.60;;;;;;;9.63;100.00;101646.13;2107784;28;20317;-67
2021/10/26 02:29:06;;;;;;;24.67;13.93;;;;;;;9.65;100.00;101646.09;2107976;28;20434;-69
2021/10/26 02:30:07;;;;;;;33.93;15.30;;;;;;;9.65;100.00;101639.13;2107922;28;20031;-70
2021/10/26 02:31:07;;;;;;;27.58;13.00;;;;;;;9.64;100.00;101641.75;2107791;28;20024;-68
2021/10/26 02:32:08;;;;;;;28.25;15.52;;;;;;;9.63;100.00;101650.47;2107938;28;20030;-71
2021/10/26 02:33:10;;;;;;;30.63;14.17;;;;;;;9.64;100.00;101649.56;2107891;28;20465;-69
2021/10/26 02:34:10;;;;;;;28.77;14.30;;;;;;;9.61;100.00;101649.69;2107847;28;20277;-71
2021/10/26 02:35:12;;;;;;;26.58;14.70;;;;;;;9.61;100.00;101657.50;2107745;28;20036;-70
2021/10/26 02:36:12;;;;;;;26.73;14.52;;;;;;;9.62;100.00;101656.59;2107666;28;20024;-71
2021/10/26 02:37:13;;;;;;;31.13;14.83;;;;;;;9.64;100.00;101662.59;2106864;28;20060;-71
2021/10/26 02:38:13;;;;;;;36.30;14.40;;;;;;;9.65;100.00;101656.53;2107314;28;20501;-71
2021/10/26 02:39:13;;;;;;;26.37;13.57;;;;;;;9.66;100.00;101659.06;2107801;28;20028;-71
2021/10/26 02:40:14;;;;;;;34.60;13.82;;;;;;;9.67;100.00;101654.72;2107094;28;20020;-73
2021/10/26 02:41:14;;;;;;;33.33;15.37;;;;;;;9.68;100.00;101655.59;2106947;28;20428;-71
2021/10/26 02:42:14;;;;;;;32.53;14.60;;;;;;;9.68;100.00;101656.41;2107544;28;20027;-72
2021/10/26 02:43:14;;;;;;;29.60;16.07;;;;;;;9.69;100.00;101652.06;2107447;28;20020;-71
2021/10/26 02:44:15;;;;;;;30.80;15.53;;;;;;;9.68;100.00;101651.22;2107538;28;20032;-71
2021/10/26 02:45:17;;;;;;;32.23;17.00;;;;;;;9.70;100.00;101653.78;2107424;28;20051;-72
2021/10/26 02:46:18;;;;;;;27.98;16.27;;;;;;;9.65;100.00;101646.94;2107378;28;20042;-70
2021/10/26 02:47:18;;;;;;;32.00;16.55;;;;;;;9.68;100.00;101656.41;2107598;28;20418;-70
2021/10/26 02:48:18;;;;;;;31.40;15.87;;;;;;;9.66;100.00;101653.84;2107515;28;20023;-68
2021/10/26 02:49:18;;;;;;;31.13;15.50;;;;;;;9.67;100.00;101662.53;2106747;28;20484;-66
2021/10/26 02:50:19;;;;;;;27.50;14.13;;;;;;;9.67;100.00;101654.72;2106800;28;20552;-67
2021/10/26 02:51:20;;;;;;;30.13;14.82;;;;;;;9.68;100.00;101655.59;2107468;28;20027;-67
2021/10/26 02:52:20;;;;;;;29.57;13.37;;;;;;;9.71;100.00;101665.94;2107346;28;20122;-67
2021/10/26 02:53:21;;;;;;;30.60;14.43;;;;;;;9.71;100.00;101661.56;2107358;28;20542;-68
2021/10/26 02:54:21;;;;;;;28.88;14.60;;;;;;;9.73;100.00;101662.38;2107436;28;20399;-67
2021/10/26 02:55:21;;;;;;;30.00;14.83;;;;;;;9.75;100.00;101663.19;2107553;28;20016;-66
2021/10/26 02:56:22;;;;;;;30.53;14.00;;;;;;;9.78;100.00;101660.50;2107282;28;20035;-67
2021/10/26 02:57:22;;;;;;;26.73;13.27;;;;;;;9.78;100.00;101663.13;2107623;28;20016;-65
2021/10/26 02:58:22;;;;;;;31.40;16.40;;;;;;;9.78;100.00;101670.94;2107451;28;20582;-67
2021/10/26 02:59:24;;;;;;;32.53;14.70;;;;;;;9.78;100.00;101673.53;2107514;28;20171;-67
2021/10/26 03:00:25;;;;;;;29.40;13.07;;;;;;;9.77;100.00;101677.06;2107523;28;20396;-67
2021/10/26 03:01:25;;;;;;;25.80;14.10;;;;;;;9.78;100.00;101668.34;2106914;28;20023;-67
2021/10/26 03:02:25;;;;;;;27.93;12.83;;;;;;;9.79;100.00;101667.44;2106881;28;20491;-68
2021/10/26 03:03:25;;;;;;;24.80;12.80;;;;;;;9.80;100.00;101676.13;2107424;28;20468;-67
2021/10/26 03:04:26;;;;;;;28.90;13.90;;;;;;;9.82;99.80;101668.25;2107198;28;20098;-67
2021/10/26 03:05:26;;;;;;;34.87;16.77;;;;;;;9.83;100.00;101675.19;2107226;28;20028;-66
2021/10/26 03:06:26;;;;;;;24.57;14.47;;;;;;;9.84;99.80;101674.28;2107381;28;20028;-67
2021/10/26 03:07:26;;;;;;;33.83;17.50;;;;;;;9.85;100.00;101669.03;2107532;28;20476;-66
2021/10/26 03:08:27;;;;;;;27.57;13.47;;;;;;;9.87;99.89;101677.69;2106577;28;20020;-67
2021/10/26 03:09:28;;;;;;;29.37;14.13;;;;;;;9.86;100.00;101669.88;2106714;28;20030;-66
2021/10/26 03:10:28;;;;;;;26.85;14.60;;;;;;;9.86;99.84;101672.50;2107396;28;20028;-67
2021/10/26 03:11:29;;;;;;;31.17;12.77;;;;;;;9.87;99.59;101668.97;2107406;28;20493;-68
2021/10/26 03:12:29;;;;;;;27.20;14.43;;;;;;;9.86;99.85;101669.88;2107457;28;20091;-67
2021/10/26 03:13:30;;;;;;;29.20;14.07;;;;;;;9.88;99.83;101681.13;2107115;28;20377;-66
2021/10/26 03:14:30;;;;;;;29.98;14.90;;;;;;;9.88;99.41;101675.91;2106504;28;20098;-67
2021/10/26 03:15:30;;;;;;;35.37;16.03;;;;;;;9.88;99.72;101683.72;2098303;28;20020;-66
2021/10/26 03:16:31;;;;;;;27.97;15.33;;;;;;;9.90;99.47;101676.72;2106629;28;20095;-65
2021/10/26 03:17:31;;;;;;;26.38;13.48;;;;;;;9.91;99.44;101678.44;2106536;28;20032;-67
2021/10/26 03:18:32;;;;;;;26.50;13.17;;;;;;;9.89;99.60;101681.09;2106614;28;20028;-66
2021/10/26 03:19:33;;;;;;;31.45;13.35;;;;;;;9.89;99.79;101675.88;2106778;28;20115;-67
2021/10/26 03:20:33;;;;;;;36.50;15.87;;;;;;;9.88;99.33;101674.16;2107073;28;20012;-66
2021/10/26 03:21:35;;;;;;;29.07;13.30;;;;;;;9.88;99.89;101678.50;2107183;28;20038;-66
2021/10/26 03:22:36;;;;;;;30.47;14.90;;;;;;;9.88;99.91;101678.50;2106980;28;20036;-67
2021/10/26 03:23:36;;;;;;;23.98;13.52;;;;;;;9.87;99.76;101679.41;2106572;28;20244;-67
2021/10/26 03:24:36;;;;;;;30.57;15.07;;;;;;;9.89;99.69;101680.25;2106675;28;20100;-66
2021/10/26 03:25:37;;;;;;;32.60;14.50;;;;;;;9.89;99.38;101682.84;2107476;28;20485;-66
2021/10/26 03:26:37;;;;;;;30.90;13.90;;;;;;;9.89;99.38;101680.25;2107467;28;20529;-65
2021/10/26 03:27:38;;;;;;;31.30;14.53;;;;;;;9.89;99.18;101690.66;2107469;28;20103;-66
2021/10/26 03:28:38;;;;;;;29.70;14.43;;;;;;;9.89;99.37;101685.47;2106361;28;20013;-69
2021/10/26 03:29:38;;;;;;;25.90;13.00;;;;;;;9.89;99.57;101686.28;2106684;28;20066;-68
2021/10/26 03:30:39;;;;;;;27.87;13.33;;;;;;;9.89;99.79;101680.25;2106848;28;20022;-68
2021/10/26 03:31:39;;;;;;;28.17;12.93;;;;;;;9.88;99.90;101683.72;2107566;28;20016;-67
2021/10/26 03:32:40;;;;;;;24.50;12.33;;;;;;;9.88;99.25;101683.72;2107455;28;20056;-68
2021/10/26 03:33:40;;;;;;;28.98;14.27;;;;;;;9.88;99.41;101678.50;2106669;28;20024;-67
2021/10/26 03:34:41;;;;;;;30.10;13.60;;;;;;;9.88;99.82;101678.50;2106927;28;20019;-67
2021/10/26 03:35:41;;;;;;;29.03;13.13;;;;;;;9.89;99.41;101686.28;2107297;28;20036;-67
2021/10/26 03:36:42;;;;;;;28.00;12.75;;;;;;;9.88;99.69;101681.13;2106225;28;20031;-67
2021/10/26 03:37:42;;;;;;;31.60;16.70;;;;;;;9.90;99.08;101687.16;2106345;28;20095;-65
2021/10/26 03:38:43;;;;;;;33.03;13.30;;;;;;;9.91;99.81;101686.25;2106637;28;20093;-66
2021/10/26 03:39:44;;;;;;;27.17;14.45;;;;;;;9.93;99.88;101687.09;2106581;28;20065;-67
2021/10/26 03:40:45;;;;;;;27.50;13.77;;;;;;;9.93;99.35;101681.88;2107345;28;20028;-67
2021/10/26 03:41:45;;;;;;;35.50;15.23;;;;;;;9.93;99.32;101681.88;2107003;28;20119;-67
2021/10/26 03:42:46;;;;;;;23.65;15.00;;;;;;;9.95;99.12;101687.88;2107169;28;20016;-65
2021/10/26 03:43:46;;;;;;;30.90;15.37;;;;;;;9.95;98.71;101685.28;2107117;28;20043;-68
2021/10/26 03:44:47;;;;;;;27.97;14.60;;;;;;;9.95;98.73;101684.44;2107122;28;20044;-66
2021/10/26 03:45:47;;;;;;;29.60;15.65;;;;;;;9.93;98.82;101687.09;2107305;28;20053;-66
2021/10/26 03:46:47;;;;;;;31.13;14.40;;;;;;;9.93;99.36;101684.47;2107393;28;20047;-66
2021/10/26 03:47:47;;;;;;;30.73;16.30;;;;;;;9.94;99.34;101682.72;2107038;28;20052;-67
2021/10/26 03:48:48;;;;;;;27.00;13.87;;;;;;;9.92;98.98;101683.63;2107043;28;20016;-67
2021/10/26 03:49:48;;;;;;;30.77;14.70;;;;;;;9.93;98.65;101687.09;2106988;28;20032;-67
2021/10/26 03:50:48;;;;;;;28.85;13.43;;;;;;;9.94;99.40;101685.31;2106577;28;20027;-66
2021/10/26 03:51:49;;;;;;;29.27;14.80;;;;;;;9.92;99.17;101688.81;2106252;28;20028;-67
2021/10/26 03:52:49;;;;;;;32.07;15.63;;;;;;;9.92;98.77;101685.34;2106954;28;20036;-65
2021/10/26 03:53:49;;;;;;;34.67;17.23;;;;;;;9.92;99.00;101695.78;2106893;28;20084;-68
2021/10/26 03:54:50;;;;;;;29.50;14.50;;;;;;;9.92;98.80;101696.66;2106875;28;20026;-67
2021/10/26 03:55:51;;;;;;;31.75;15.13;;;;;;;9.91;99.01;101700.16;2107090;28;20020;-66
2021/10/26 03:56:52;;;;;;;33.55;15.43;;;;;;;9.89;98.77;101686.28;2107083;28;20066;-67
2021/10/26 03:57:52;;;;;;;;;;;;;;;9.90;99.32;101692.38;2107752;28;20121;-67
2021/10/26 03:58:53;;;;;;;28.50;14.40;;;;;;;9.90;98.87;101689.78;2107021;28;19907;-66
2021/10/26 03:59:53;;;;;;;33.43;15.90;;;;;;;9.91;99.23;101694.06;2106764;28;20099;-67
2021/10/26 04:00:53;;;;;;;31.53;17.00;;;;;;;9.91;99.35;101696.69;2106693;28;20024;-67
2021/10/26 04:01:54;;;;;;;32.87;16.77;;;;;;;9.90;98.89;101694.97;2106660;28;20085;-66
2021/10/26 04:02:55;;;;;;;33.30;18.80;;;;;;;9.90;98.49;101694.97;2106725;28;20095;-67
2021/10/26 04:03:55;;;;;;;35.45;15.30;;;;;;;9.89;98.84;101693.28;2107020;28;20028;-67
2021/10/26 04:05:03;;;;;;;28.13;15.23;;;;;;;9.88;99.01;101688.94;2106994;28;20037;-68
2021/10/26 04:06:06;;;;;;;35.58;14.77;;;;;;;9.87;98.84;101688.09;2107111;28;20024;-66
2021/10/26 04:07:09;;;;;;;36.75;19.85;;;;;;;9.86;98.81;101688.13;2107028;28;20111;-67
2021/10/26 04:09:50;;;;;;;29.88;14.52;;;;;;;9.85;98.87;101689.88;2106919;28;20090;-68
2021/10/26 04:10:54;;;;;;;31.60;14.98;;;;;;;9.86;98.74;101685.53;2106700;28;20472;-65
2021/10/26 04:12:16;;;;;;;33.97;15.70;;;;;;;9.86;98.77;101685.53;2106598;28;20016;-67
2021/10/26 04:13:14;;;;;;;32.90;16.80;;;;;;;9.84;98.63;101693.38;2106238;28;20084;-67
2021/10/26 04:14:14;;;;;;;33.33;15.17;;;;;;;9.86;98.88;101693.34;2105881;28;20032;-66
2021/10/26 04:15:15;;;;;;;33.10;16.75;;;;;;;9.84;98.70;101697.72;2106000;28;20027;-67
2021/10/26 04:16:15;;;;;;;36.03;17.67;;;;;;;9.82;98.73;101689.94;2106627;28;20047;-69
2021/10/26 04:17:16;;;;;;;30.27;16.35;;;;;;;9.82;98.97;101695.16;2106656;28;20069;-66
2021/10/26 04:18:16;;;;;;;30.90;15.33;;;;;;;9.79;98.79;101696.09;2106752;28;20028;-68
2021/10/26 04:19:16;;;;;;;36.53;16.38;;;;;;;9.79;98.90;101695.28;2106549;28;20514;-68
2021/10/26 04:20:17;;;;;;;34.47;16.70;;;;;;;9.79;98.68;101695.28;2106535;28;20035;-67
2021/10/26 04:21:17;;;;;;;36.30;17.10;;;;;;;9.73;99.33;101685.84;2106190;28;20016;-67
2021/10/26 04:22:20;;;;;;;35.17;16.70;;;;;;;9.71;99.10;101690.22;2106077;28;20043;-67
2021/10/26 04:23:22;;;;;;;33.40;15.10;;;;;;;9.71;99.33;101692.84;2106974;28;20048;-68
2021/10/26 04:24:22;;;;;;;31.80;16.98;;;;;;;9.73;99.30;101695.41;2106687;28;20047;-66
2021/10/26 04:25:22;;;;;;;40.03;18.83;;;;;;;9.73;99.01;101691.06;2106435;28;20065;-66
2021/10/26 04:26:23;;;;;;;32.73;18.00;;;;;;;9.71;99.06;101698.06;2106600;28;20548;-67
2021/10/26 04:27:25;;;;;;;34.87;16.00;;;;;;;9.70;99.24;101691.13;2106463;28;20434;-67
2021/10/26 04:28:25;;;;;;;35.03;17.08;;;;;;;9.68;99.59;101698.13;2106958;28;20024;-66
2021/10/26 04:29:25;;;;;;;38.77;17.50;;;;;;;9.69;99.36;101699.84;2106535;28;20393;-66
2021/10/26 04:30:26;;;;;;;38.93;16.47;;;;;;;9.67;99.57;101696.41;2106655;28;20101;-66
2021/10/26 04:31:26;;;;;;;40.45;15.98;;;;;;;9.66;99.50;101700.75;2105993;28;20503;-67
2021/10/26 04:32:26;;;;;;;38.83;16.60;;;;;;;9.65;99.49;101708.66;2106255;28;20047;-67
2021/10/26 04:33:27;;;;;;;35.47;14.83;;;;;;;9.63;99.50;101706.06;2106613;28;20062;-68
2021/10/26 04:34:27;;;;;;;31.17;15.50;;;;;;;9.64;99.68;101712.13;2106648;28;20481;-67
2021/10/26 04:35:27;;;;;;;37.77;18.43;;;;;;;9.64;99.56;101707.78;2106586;28;20023;-66
2021/10/26 04:36:28;;;;;;;40.72;17.23;;;;;;;9.63;99.15;101716.50;2106909;28;20026;-69
2021/10/26 04:37:29;;;;;;;38.03;16.80;;;;;;;9.64;99.32;101712.13;2106436;28;20036;-68
2021/10/26 04:38:29;;;;;;;30.92;13.73;;;;;;;9.62;99.77;101716.53;2106704;28;20051;-68
2021/10/26 04:39:29;;;;;;;31.27;15.80;;;;;;;9.62;99.21;101709.56;2106041;28;20028;-68